sensor_id;sensor_type;location;lat;lon;timestamp;P1;durP1;ratioP1;P2;durP2;ratioP2
10144;SDS011;5113;41.822;23.564;2024-02-23T00:00:04;42.73;;;23.80;;
10144;SDS011;5113;41.822;23.564;2024-02-23T00:03:15;41.63;;;23.07;;
10144;SDS011;5113;41.822;23.564;2024-02-23T00:06:23;48.97;;;23.17;;
10144;SDS011;5113;41.822;23.564;2024-02-23T00:09:33;38.10;;;20.83;;
10144;SDS011;5113;41.822;23.564;2024-02-23T00:12:40;31.70;;;15.47;;
10144;SDS011;5113;41.822;23.564;2024-02-23T00:15:49;31.53;;;17.47;;
10144;SDS011;5113;41.822;23.564;2024-02-23T00:18:56;33.10;;;17.83;;
10144;SDS011;5113;41.822;23.564;2024-02-23T00:22:05;39.13;;;20.30;;
10144;SDS011;5113;41.822;23.564;2024-02-23T00:25:12;39.80;;;21.17;;
10144;SDS011;5113;41.822;23.564;2024-02-23T00:28:20;36.33;;;19.03;;
10144;SDS011;5113;41.822;23.564;2024-02-23T00:31:27;46.73;;;21.00;;
10144;SDS011;5113;41.822;23.564;2024-02-23T00:34:33;43.57;;;21.30;;
10144;SDS011;5113;41.822;23.564;2024-02-23T00:37:41;40.10;;;19.40;;
10144;SDS011;5113;41.822;23.564;2024-02-23T00:40:48;28.53;;;15.27;;
10144;SDS011;5113;41.822;23.564;2024-02-23T00:43:55;33.93;;;16.23;;
10144;SDS011;5113;41.822;23.564;2024-02-23T00:47:03;34.73;;;15.40;;
10144;SDS011;5113;41.822;23.564;2024-02-23T00:50:10;26.83;;;14.97;;
10144;SDS011;5113;41.822;23.564;2024-02-23T00:53:18;20.63;;;12.90;;
10144;SDS011;5113;41.822;23.564;2024-02-23T00:56:25;20.97;;;12.47;;
10144;SDS011;5113;41.822;23.564;2024-02-23T00:59:44;20.73;;;12.40;;
10144;SDS011;5113;41.822;23.564;2024-02-23T01:02:51;17.50;;;11.07;;
10144;SDS011;5113;41.822;23.564;2024-02-23T01:05:58;16.57;;;11.37;;
10144;SDS011;5113;41.822;23.564;2024-02-23T01:09:05;18.07;;;11.73;;
10144;SDS011;5113;41.822;23.564;2024-02-23T01:12:13;18.17;;;11.37;;
10144;SDS011;5113;41.822;23.564;2024-02-23T01:15:20;17.60;;;12.13;;
10144;SDS011;5113;41.822;23.564;2024-02-23T01:18:26;22.07;;;12.83;;
10144;SDS011;5113;41.822;23.564;2024-02-23T01:21:33;15.73;;;11.07;;
10144;SDS011;5113;41.822;23.564;2024-02-23T01:24:42;24.47;;;13.57;;
10144;SDS011;5113;41.822;23.564;2024-02-23T01:27:49;25.07;;;13.47;;
10144;SDS011;5113;41.822;23.564;2024-02-23T01:30:56;23.50;;;14.13;;
10144;SDS011;5113;41.822;23.564;2024-02-23T01:34:03;22.83;;;14.60;;
10144;SDS011;5113;41.822;23.564;2024-02-23T01:37:10;19.97;;;12.80;;
10144;SDS011;5113;41.822;23.564;2024-02-23T01:40:19;23.07;;;11.70;;
10144;SDS011;5113;41.822;23.564;2024-02-23T01:43:26;25.13;;;13.37;;
10144;SDS011;5113;41.822;23.564;2024-02-23T01:46:32;21.63;;;13.20;;
10144;SDS011;5113;41.822;23.564;2024-02-23T01:49:39;17.83;;;10.37;;
10144;SDS011;5113;41.822;23.564;2024-02-23T01:52:46;16.37;;;10.90;;
10144;SDS011;5113;41.822;23.564;2024-02-23T01:55:54;19.90;;;11.53;;
10144;SDS011;5113;41.822;23.564;2024-02-23T01:59:01;18.60;;;10.83;;
10144;SDS011;5113;41.822;23.564;2024-02-23T02:02:10;13.60;;;8.70;;
10144;SDS011;5113;41.822;23.564;2024-02-23T02:05:17;14.93;;;10.20;;
10144;SDS011;5113;41.822;23.564;2024-02-23T02:08:24;14.30;;;8.53;;
10144;SDS011;5113;41.822;23.564;2024-02-23T02:11:33;15.10;;;9.97;;
10144;SDS011;5113;41.822;23.564;2024-02-23T02:14:40;16.23;;;9.77;;
10144;SDS011;5113;41.822;23.564;2024-02-23T02:17:46;18.83;;;9.67;;
10144;SDS011;5113;41.822;23.564;2024-02-23T02:20:54;14.93;;;9.93;;
10144;SDS011;5113;41.822;23.564;2024-02-23T02:24:02;14.77;;;10.03;;
10144;SDS011;5113;41.822;23.564;2024-02-23T02:27:11;18.47;;;9.70;;
10144;SDS011;5113;41.822;23.564;2024-02-23T02:30:17;15.13;;;10.40;;
10144;SDS011;5113;41.822;23.564;2024-02-23T02:33:24;21.80;;;11.03;;
10144;SDS011;5113;41.822;23.564;2024-02-23T02:36:31;23.73;;;11.50;;
10144;SDS011;5113;41.822;23.564;2024-02-23T02:39:39;20.67;;;12.60;;
10144;SDS011;5113;41.822;23.564;2024-02-23T02:42:47;21.43;;;13.43;;
10144;SDS011;5113;41.822;23.564;2024-02-23T02:45:54;20.00;;;12.47;;
10144;SDS011;5113;41.822;23.564;2024-02-23T02:49:01;19.00;;;13.07;;
10144;SDS011;5113;41.822;23.564;2024-02-23T02:52:09;20.67;;;11.77;;
10144;SDS011;5113;41.822;23.564;2024-02-23T02:55:15;21.33;;;12.03;;
10144;SDS011;5113;41.822;23.564;2024-02-23T02:58:24;18.70;;;11.33;;
10144;SDS011;5113;41.822;23.564;2024-02-23T03:01:31;18.03;;;11.63;;
10144;SDS011;5113;41.822;23.564;2024-02-23T03:04:38;18.20;;;10.57;;
10144;SDS011;5113;41.822;23.564;2024-02-23T03:07:45;15.27;;;10.73;;
10144;SDS011;5113;41.822;23.564;2024-02-23T03:10:52;15.37;;;10.43;;
10144;SDS011;5113;41.822;23.564;2024-02-23T03:14:00;15.50;;;9.73;;
10144;SDS011;5113;41.822;23.564;2024-02-23T03:17:08;19.33;;;11.77;;
10144;SDS011;5113;41.822;23.564;2024-02-23T03:20:15;23.57;;;12.40;;
10144;SDS011;5113;41.822;23.564;2024-02-23T03:23:40;19.43;;;12.27;;
10144;SDS011;5113;41.822;23.564;2024-02-23T03:26:47;18.20;;;11.30;;
10144;SDS011;5113;41.822;23.564;2024-02-23T03:29:55;20.37;;;12.07;;
10144;SDS011;5113;41.822;23.564;2024-02-23T03:33:02;19.20;;;10.23;;
10144;SDS011;5113;41.822;23.564;2024-02-23T03:36:09;35.47;;;19.40;;
10144;SDS011;5113;41.822;23.564;2024-02-23T03:39:15;18.10;;;10.90;;
10144;SDS011;5113;41.822;23.564;2024-02-23T03:42:22;22.43;;;13.97;;
10144;SDS011;5113;41.822;23.564;2024-02-23T03:45:30;24.23;;;12.30;;
10144;SDS011;5113;41.822;23.564;2024-02-23T03:48:37;21.27;;;12.03;;
10144;SDS011;5113;41.822;23.564;2024-02-23T03:51:44;19.33;;;11.10;;
10144;SDS011;5113;41.822;23.564;2024-02-23T03:54:51;32.33;;;17.40;;
10144;SDS011;5113;41.822;23.564;2024-02-23T03:57:59;34.83;;;19.07;;
10144;SDS011;5113;41.822;23.564;2024-02-23T04:01:07;31.17;;;18.17;;
10144;SDS011;5113;41.822;23.564;2024-02-23T04:04:14;34.57;;;17.17;;
10144;SDS011;5113;41.822;23.564;2024-02-23T04:07:21;26.57;;;15.53;;
10144;SDS011;5113;41.822;23.564;2024-02-23T04:10:28;21.67;;;13.47;;
10144;SDS011;5113;41.822;23.564;2024-02-23T04:13:36;29.43;;;16.70;;
10144;SDS011;5113;41.822;23.564;2024-02-23T04:16:44;28.73;;;17.10;;
10144;SDS011;5113;41.822;23.564;2024-02-23T04:19:51;30.37;;;18.70;;
10144;SDS011;5113;41.822;23.564;2024-02-23T04:22:59;28.70;;;17.63;;
10144;SDS011;5113;41.822;23.564;2024-02-23T04:26:06;13.57;;;10.57;;
10144;SDS011;5113;41.822;23.564;2024-02-23T04:29:13;25.87;;;16.13;;
10144;SDS011;5113;41.822;23.564;2024-02-23T04:32:22;34.10;;;19.53;;
10144;SDS011;5113;41.822;23.564;2024-02-23T04:35:29;26.10;;;14.57;;
10144;SDS011;5113;41.822;23.564;2024-02-23T04:38:36;27.63;;;16.93;;
10144;SDS011;5113;41.822;23.564;2024-02-23T04:41:43;20.77;;;14.10;;
10144;SDS011;5113;41.822;23.564;2024-02-23T04:44:50;20.23;;;13.57;;
10144;SDS011;5113;41.822;23.564;2024-02-23T04:48:01;25.37;;;15.67;;
10144;SDS011;5113;41.822;23.564;2024-02-23T04:51:09;26.93;;;17.27;;
10144;SDS011;5113;41.822;23.564;2024-02-23T04:54:15;31.63;;;18.20;;
10144;SDS011;5113;41.822;23.564;2024-02-23T04:57:22;43.57;;;20.07;;
10144;SDS011;5113;41.822;23.564;2024-02-23T05:00:30;40.03;;;22.33;;
10144;SDS011;5113;41.822;23.564;2024-02-23T05:03:40;31.40;;;18.80;;
10144;SDS011;5113;41.822;23.564;2024-02-23T05:06:47;25.20;;;15.70;;
10144;SDS011;5113;41.822;23.564;2024-02-23T05:09:54;48.50;;;25.23;;
10144;SDS011;5113;41.822;23.564;2024-02-23T05:13:01;260.20;;;111.17;;
10144;SDS011;5113;41.822;23.564;2024-02-23T05:16:07;146.93;;;65.33;;
10144;SDS011;5113;41.822;23.564;2024-02-23T05:19:15;54.13;;;29.50;;
10144;SDS011;5113;41.822;23.564;2024-02-23T05:22:22;270.40;;;114.20;;
10144;SDS011;5113;41.822;23.564;2024-02-23T05:25:28;83.03;;;43.03;;
10144;SDS011;5113;41.822;23.564;2024-02-23T05:28:35;43.93;;;22.27;;
10144;SDS011;5113;41.822;23.564;2024-02-23T05:31:46;38.60;;;24.57;;
10144;SDS011;5113;41.822;23.564;2024-02-23T05:34:56;75.43;;;41.70;;
10144;SDS011;5113;41.822;23.564;2024-02-23T05:38:03;55.67;;;33.03;;
10144;SDS011;5113;41.822;23.564;2024-02-23T05:41:11;60.10;;;41.27;;
10144;SDS011;5113;41.822;23.564;2024-02-23T05:44:18;65.50;;;37.07;;
10144;SDS011;5113;41.822;23.564;2024-02-23T05:47:25;62.67;;;33.37;;
10144;SDS011;5113;41.822;23.564;2024-02-23T05:50:34;71.70;;;40.60;;
10144;SDS011;5113;41.822;23.564;2024-02-23T05:53:40;72.20;;;37.53;;
10144;SDS011;5113;41.822;23.564;2024-02-23T05:56:48;73.33;;;38.17;;
10144;SDS011;5113;41.822;23.564;2024-02-23T05:59:55;73.27;;;36.73;;
10144;SDS011;5113;41.822;23.564;2024-02-23T06:03:02;68.57;;;33.93;;
10144;SDS011;5113;41.822;23.564;2024-02-23T06:06:10;82.70;;;37.37;;
10144;SDS011;5113;41.822;23.564;2024-02-23T06:09:17;55.27;;;29.90;;
10144;SDS011;5113;41.822;23.564;2024-02-23T06:12:24;93.60;;;46.37;;
10144;SDS011;5113;41.822;23.564;2024-02-23T06:15:31;85.53;;;42.90;;
10144;SDS011;5113;41.822;23.564;2024-02-23T06:18:39;92.00;;;43.00;;
10144;SDS011;5113;41.822;23.564;2024-02-23T06:21:49;61.37;;;32.47;;
10144;SDS011;5113;41.822;23.564;2024-02-23T06:24:55;79.17;;;40.27;;
10144;SDS011;5113;41.822;23.564;2024-02-23T06:28:02;116.93;;;64.60;;
10144;SDS011;5113;41.822;23.564;2024-02-23T06:31:09;85.27;;;49.77;;
10144;SDS011;5113;41.822;23.564;2024-02-23T06:34:16;64.50;;;36.10;;
10144;SDS011;5113;41.822;23.564;2024-02-23T06:37:24;57.07;;;33.63;;
10144;SDS011;5113;41.822;23.564;2024-02-23T06:40:31;54.47;;;27.77;;
10144;SDS011;5113;41.822;23.564;2024-02-23T06:43:55;66.90;;;36.83;;
10144;SDS011;5113;41.822;23.564;2024-02-23T06:47:01;80.87;;;42.03;;
10144;SDS011;5113;41.822;23.564;2024-02-23T06:50:08;93.20;;;43.63;;
10144;SDS011;5113;41.822;23.564;2024-02-23T06:53:17;100.93;;;46.77;;
10144;SDS011;5113;41.822;23.564;2024-02-23T06:56:24;114.43;;;54.10;;
10144;SDS011;5113;41.822;23.564;2024-02-23T06:59:31;127.00;;;64.60;;
10144;SDS011;5113;41.822;23.564;2024-02-23T07:02:37;136.00;;;67.47;;
10144;SDS011;5113;41.822;23.564;2024-02-23T07:05:44;120.73;;;55.87;;
10144;SDS011;5113;41.822;23.564;2024-02-23T07:08:53;86.80;;;45.97;;
10144;SDS011;5113;41.822;23.564;2024-02-23T07:12:01;80.17;;;40.47;;
10144;SDS011;5113;41.822;23.564;2024-02-23T07:15:08;54.87;;;29.17;;
10144;SDS011;5113;41.822;23.564;2024-02-23T07:18:15;32.77;;;20.13;;
10144;SDS011;5113;41.822;23.564;2024-02-23T07:21:21;34.10;;;19.50;;
10144;SDS011;5113;41.822;23.564;2024-02-23T07:24:30;27.37;;;16.03;;
10144;SDS011;5113;41.822;23.564;2024-02-23T07:27:37;18.57;;;11.90;;
10144;SDS011;5113;41.822;23.564;2024-02-23T07:30:44;17.07;;;11.53;;
10144;SDS011;5113;41.822;23.564;2024-02-23T07:33:51;20.60;;;12.80;;
10144;SDS011;5113;41.822;23.564;2024-02-23T07:36:57;21.33;;;12.27;;
10144;SDS011;5113;41.822;23.564;2024-02-23T07:40:06;12.90;;;9.20;;
10144;SDS011;5113;41.822;23.564;2024-02-23T07:43:13;10.80;;;7.87;;
10144;SDS011;5113;41.822;23.564;2024-02-23T07:46:20;13.33;;;9.63;;
10144;SDS011;5113;41.822;23.564;2024-02-23T07:49:31;16.87;;;9.60;;
10144;SDS011;5113;41.822;23.564;2024-02-23T07:52:37;18.40;;;11.57;;
10144;SDS011;5113;41.822;23.564;2024-02-23T07:55:46;18.30;;;11.93;;
10144;SDS011;5113;41.822;23.564;2024-02-23T07:58:56;14.60;;;11.07;;
10144;SDS011;5113;41.822;23.564;2024-02-23T08:02:02;19.50;;;11.93;;
10144;SDS011;5113;41.822;23.564;2024-02-23T08:05:09;17.80;;;11.43;;
10144;SDS011;5113;41.822;23.564;2024-02-23T08:08:17;20.20;;;11.33;;
10144;SDS011;5113;41.822;23.564;2024-02-23T08:11:25;23.03;;;12.37;;
10144;SDS011;5113;41.822;23.564;2024-02-23T08:14:32;15.90;;;10.80;;
10144;SDS011;5113;41.822;23.564;2024-02-23T08:17:39;14.17;;;9.37;;
10144;SDS011;5113;41.822;23.564;2024-02-23T08:20:46;18.57;;;10.80;;
10144;SDS011;5113;41.822;23.564;2024-02-23T08:23:53;25.83;;;14.97;;
10144;SDS011;5113;41.822;23.564;2024-02-23T08:27:01;22.43;;;13.57;;
10144;SDS011;5113;41.822;23.564;2024-02-23T08:30:09;16.20;;;10.83;;
10144;SDS011;5113;41.822;23.564;2024-02-23T08:33:16;24.60;;;15.17;;
10144;SDS011;5113;41.822;23.564;2024-02-23T08:36:23;18.07;;;11.67;;
10144;SDS011;5113;41.822;23.564;2024-02-23T08:39:30;21.07;;;13.47;;
10144;SDS011;5113;41.822;23.564;2024-02-23T08:42:40;19.60;;;12.77;;
10144;SDS011;5113;41.822;23.564;2024-02-23T08:45:47;25.27;;;15.50;;
10144;SDS011;5113;41.822;23.564;2024-02-23T08:48:54;19.07;;;13.23;;
10144;SDS011;5113;41.822;23.564;2024-02-23T08:52:00;19.03;;;11.00;;
10144;SDS011;5113;41.822;23.564;2024-02-23T08:55:09;21.40;;;13.37;;
10144;SDS011;5113;41.822;23.564;2024-02-23T08:58:18;17.57;;;11.43;;
10144;SDS011;5113;41.822;23.564;2024-02-23T09:01:24;23.90;;;15.50;;
10144;SDS011;5113;41.822;23.564;2024-02-23T09:04:31;26.97;;;15.03;;
10144;SDS011;5113;41.822;23.564;2024-02-23T09:07:38;16.63;;;11.60;;
10144;SDS011;5113;41.822;23.564;2024-02-23T09:10:46;13.90;;;9.03;;
10144;SDS011;5113;41.822;23.564;2024-02-23T09:13:54;13.93;;;7.50;;
10144;SDS011;5113;41.822;23.564;2024-02-23T09:17:01;8.47;;;6.37;;
10144;SDS011;5113;41.822;23.564;2024-02-23T09:20:11;12.57;;;8.57;;
10144;SDS011;5113;41.822;23.564;2024-02-23T09:23:18;10.87;;;7.37;;
10144;SDS011;5113;41.822;23.564;2024-02-23T09:26:25;8.77;;;6.60;;
10144;SDS011;5113;41.822;23.564;2024-02-23T09:29:33;8.30;;;5.90;;
10144;SDS011;5113;41.822;23.564;2024-02-23T09:32:40;10.47;;;6.10;;
10144;SDS011;5113;41.822;23.564;2024-02-23T09:35:47;8.80;;;6.50;;
10144;SDS011;5113;41.822;23.564;2024-02-23T09:38:54;8.83;;;5.70;;
10144;SDS011;5113;41.822;23.564;2024-02-23T09:42:00;5.67;;;4.80;;
10144;SDS011;5113;41.822;23.564;2024-02-23T09:45:10;8.57;;;6.37;;
10144;SDS011;5113;41.822;23.564;2024-02-23T09:48:18;5.73;;;4.63;;
10144;SDS011;5113;41.822;23.564;2024-02-23T09:51:26;5.03;;;4.63;;
10144;SDS011;5113;41.822;23.564;2024-02-23T09:54:34;8.87;;;5.97;;
10144;SDS011;5113;41.822;23.564;2024-02-23T09:57:40;6.37;;;5.13;;
10144;SDS011;5113;41.822;23.564;2024-02-23T10:00:49;6.23;;;4.73;;
10144;SDS011;5113;41.822;23.564;2024-02-23T10:03:56;10.67;;;6.87;;
10144;SDS011;5113;41.822;23.564;2024-02-23T10:07:04;8.10;;;5.77;;
10144;SDS011;5113;41.822;23.564;2024-02-23T10:10:10;5.43;;;4.57;;
10144;SDS011;5113;41.822;23.564;2024-02-23T10:13:17;6.57;;;4.97;;
10144;SDS011;5113;41.822;23.564;2024-02-23T10:19:52;5.80;;;4.47;;
10144;SDS011;5113;41.822;23.564;2024-02-23T10:22:59;4.43;;;4.00;;
10144;SDS011;5113;41.822;23.564;2024-02-23T10:26:06;9.30;;;5.00;;
10144;SDS011;5113;41.822;23.564;2024-02-23T10:29:13;4.00;;;3.70;;
10144;SDS011;5113;41.822;23.564;2024-02-23T10:32:24;4.93;;;4.23;;
10144;SDS011;5113;41.822;23.564;2024-02-23T10:35:35;7.83;;;6.10;;
10144;SDS011;5113;41.822;23.564;2024-02-23T10:38:45;10.67;;;5.97;;
10144;SDS011;5113;41.822;23.564;2024-02-23T10:41:55;7.97;;;5.33;;
10144;SDS011;5113;41.822;23.564;2024-02-23T10:45:04;6.50;;;4.10;;
10144;SDS011;5113;41.822;23.564;2024-02-23T10:48:15;5.40;;;4.90;;
10144;SDS011;5113;41.822;23.564;2024-02-23T10:51:22;4.13;;;3.60;;
10144;SDS011;5113;41.822;23.564;2024-02-23T10:54:47;7.90;;;5.30;;
10144;SDS011;5113;41.822;23.564;2024-02-23T10:57:56;4.40;;;3.87;;
10144;SDS011;5113;41.822;23.564;2024-02-23T11:01:05;11.73;;;4.57;;
10144;SDS011;5113;41.822;23.564;2024-02-23T11:04:16;9.13;;;4.73;;
10144;SDS011;5113;41.822;23.564;2024-02-23T11:07:23;5.57;;;4.23;;
10144;SDS011;5113;41.822;23.564;2024-02-23T11:10:30;4.53;;;4.10;;
10144;SDS011;5113;41.822;23.564;2024-02-23T11:13:38;4.40;;;3.97;;
10144;SDS011;5113;41.822;23.564;2024-02-23T11:16:44;5.20;;;4.70;;
10144;SDS011;5113;41.822;23.564;2024-02-23T11:20:02;4.83;;;4.43;;
10144;SDS011;5113;41.822;23.564;2024-02-23T11:23:13;5.00;;;3.73;;
10144;SDS011;5113;41.822;23.564;2024-02-23T11:26:22;4.17;;;3.77;;
10144;SDS011;5113;41.822;23.564;2024-02-23T11:29:31;3.10;;;2.90;;
10144;SDS011;5113;41.822;23.564;2024-02-23T11:32:38;3.93;;;3.63;;
10144;SDS011;5113;41.822;23.564;2024-02-23T11:35:48;3.60;;;3.30;;
10144;SDS011;5113;41.822;23.564;2024-02-23T11:38:57;3.80;;;3.50;;
10144;SDS011;5113;41.822;23.564;2024-02-23T11:42:06;3.50;;;3.20;;
10144;SDS011;5113;41.822;23.564;2024-02-23T11:45:13;4.67;;;4.13;;
10144;SDS011;5113;41.822;23.564;2024-02-23T11:48:20;4.70;;;4.13;;
10144;SDS011;5113;41.822;23.564;2024-02-23T11:51:30;7.27;;;3.60;;
10144;SDS011;5113;41.822;23.564;2024-02-23T11:54:37;4.47;;;4.07;;
10144;SDS011;5113;41.822;23.564;2024-02-23T11:57:43;7.17;;;4.50;;
10144;SDS011;5113;41.822;23.564;2024-02-23T12:00:52;6.17;;;4.67;;
10144;SDS011;5113;41.822;23.564;2024-02-23T12:03:59;4.47;;;3.50;;
10144;SDS011;5113;41.822;23.564;2024-02-23T12:07:07;3.93;;;3.50;;
10144;SDS011;5113;41.822;23.564;2024-02-23T12:10:14;4.27;;;3.90;;
10144;SDS011;5113;41.822;23.564;2024-02-23T12:13:21;5.50;;;4.27;;
10144;SDS011;5113;41.822;23.564;2024-02-23T12:16:28;17.60;;;8.93;;
10144;SDS011;5113;41.822;23.564;2024-02-23T12:19:37;8.67;;;6.73;;
10144;SDS011;5113;41.822;23.564;2024-02-23T12:22:46;9.73;;;5.67;;
10144;SDS011;5113;41.822;23.564;2024-02-23T12:25:53;7.53;;;6.00;;
10144;SDS011;5113;41.822;23.564;2024-02-23T12:29:02;4.43;;;4.03;;
10144;SDS011;5113;41.822;23.564;2024-02-23T12:32:10;5.13;;;4.63;;
10144;SDS011;5113;41.822;23.564;2024-02-23T12:35:16;7.57;;;5.80;;
10144;SDS011;5113;41.822;23.564;2024-02-23T12:38:24;7.27;;;5.00;;
10144;SDS011;5113;41.822;23.564;2024-02-23T12:41:31;4.87;;;4.20;;
10144;SDS011;5113;41.822;23.564;2024-02-23T12:44:39;4.07;;;3.50;;
10144;SDS011;5113;41.822;23.564;2024-02-23T12:47:45;7.27;;;4.60;;
10144;SDS011;5113;41.822;23.564;2024-02-23T12:50:52;7.53;;;4.30;;
10144;SDS011;5113;41.822;23.564;2024-02-23T12:54:00;3.47;;;3.20;;
10144;SDS011;5113;41.822;23.564;2024-02-23T12:57:09;2.97;;;2.70;;
10144;SDS011;5113;41.822;23.564;2024-02-23T13:00:16;3.20;;;2.90;;
10144;SDS011;5113;41.822;23.564;2024-02-23T13:03:23;9.70;;;3.90;;
10144;SDS011;5113;41.822;23.564;2024-02-23T13:06:32;5.77;;;3.73;;
10144;SDS011;5113;41.822;23.564;2024-02-23T13:09:40;3.10;;;2.87;;
10144;SDS011;5113;41.822;23.564;2024-02-23T13:12:46;4.30;;;3.60;;
10144;SDS011;5113;41.822;23.564;2024-02-23T13:15:54;5.27;;;4.63;;
10144;SDS011;5113;41.822;23.564;2024-02-23T13:19:01;6.07;;;4.10;;
10144;SDS011;5113;41.822;23.564;2024-02-23T13:22:08;5.53;;;3.83;;
10144;SDS011;5113;41.822;23.564;2024-02-23T13:25:17;4.20;;;3.60;;
10144;SDS011;5113;41.822;23.564;2024-02-23T13:28:24;2.73;;;2.53;;
10144;SDS011;5113;41.822;23.564;2024-02-23T13:31:30;2.93;;;2.70;;
10144;SDS011;5113;41.822;23.564;2024-02-23T13:34:37;4.40;;;4.03;;
10144;SDS011;5113;41.822;23.564;2024-02-23T13:37:44;3.93;;;3.63;;
10144;SDS011;5113;41.822;23.564;2024-02-23T13:40:52;3.53;;;3.20;;
10144;SDS011;5113;41.822;23.564;2024-02-23T13:43:59;3.47;;;3.20;;
10144;SDS011;5113;41.822;23.564;2024-02-23T13:47:05;3.73;;;3.40;;
10144;SDS011;5113;41.822;23.564;2024-02-23T13:50:12;3.70;;;3.03;;
10144;SDS011;5113;41.822;23.564;2024-02-23T13:53:19;3.33;;;2.93;;
10144;SDS011;5113;41.822;23.564;2024-02-23T13:56:27;6.63;;;3.63;;
10144;SDS011;5113;41.822;23.564;2024-02-23T13:59:34;4.10;;;3.70;;
10144;SDS011;5113;41.822;23.564;2024-02-23T14:02:41;3.67;;;3.20;;
10144;SDS011;5113;41.822;23.564;2024-02-23T14:05:49;6.83;;;4.23;;
10144;SDS011;5113;41.822;23.564;2024-02-23T14:08:56;3.87;;;3.53;;
10144;SDS011;5113;41.822;23.564;2024-02-23T14:12:05;3.77;;;3.47;;
10144;SDS011;5113;41.822;23.564;2024-02-23T14:15:12;4.23;;;3.83;;
10144;SDS011;5113;41.822;23.564;2024-02-23T14:18:19;11.13;;;8.27;;
10144;SDS011;5113;41.822;23.564;2024-02-23T14:21:25;7.73;;;6.17;;
10144;SDS011;5113;41.822;23.564;2024-02-23T14:24:32;7.60;;;4.73;;
10144;SDS011;5113;41.822;23.564;2024-02-23T14:27:40;4.73;;;4.33;;
10144;SDS011;5113;41.822;23.564;2024-02-23T14:30:48;5.83;;;5.33;;
10144;SDS011;5113;41.822;23.564;2024-02-23T14:33:54;3.40;;;3.10;;
10144;SDS011;5113;41.822;23.564;2024-02-23T14:37:01;4.03;;;3.63;;
10144;SDS011;5113;41.822;23.564;2024-02-23T14:40:09;5.30;;;4.80;;
10144;SDS011;5113;41.822;23.564;2024-02-23T14:43:20;6.33;;;4.63;;
10144;SDS011;5113;41.822;23.564;2024-02-23T14:46:26;3.70;;;3.40;;
10144;SDS011;5113;41.822;23.564;2024-02-23T14:49:33;4.93;;;4.47;;
10144;SDS011;5113;41.822;23.564;2024-02-23T14:52:41;16.47;;;9.93;;
10144;SDS011;5113;41.822;23.564;2024-02-23T14:55:49;30.73;;;19.20;;
10144;SDS011;5113;41.822;23.564;2024-02-23T14:58:58;15.23;;;11.63;;
10144;SDS011;5113;41.822;23.564;2024-02-23T15:02:06;15.70;;;11.47;;
10144;SDS011;5113;41.822;23.564;2024-02-23T15:05:14;14.10;;;10.77;;
10144;SDS011;5113;41.822;23.564;2024-02-23T15:08:22;22.93;;;17.57;;
10144;SDS011;5113;41.822;23.564;2024-02-23T15:11:29;36.47;;;29.10;;
10144;SDS011;5113;41.822;23.564;2024-02-23T15:14:37;25.17;;;18.67;;
10144;SDS011;5113;41.822;23.564;2024-02-23T15:17:44;34.97;;;20.20;;
10144;SDS011;5113;41.822;23.564;2024-02-23T15:20:52;41.10;;;27.73;;
10144;SDS011;5113;41.822;23.564;2024-02-23T15:23:59;39.90;;;27.43;;
10144;SDS011;5113;41.822;23.564;2024-02-23T15:27:05;34.47;;;23.67;;
10144;SDS011;5113;41.822;23.564;2024-02-23T15:30:15;53.80;;;34.93;;
10144;SDS011;5113;41.822;23.564;2024-02-23T15:33:22;53.83;;;32.57;;
10144;SDS011;5113;41.822;23.564;2024-02-23T15:36:29;220.17;;;133.30;;
10144;SDS011;5113;41.822;23.564;2024-02-23T15:39:36;122.40;;;69.93;;
10144;SDS011;5113;41.822;23.564;2024-02-23T15:42:43;78.87;;;45.40;;
10144;SDS011;5113;41.822;23.564;2024-02-23T15:45:51;41.00;;;24.97;;
10144;SDS011;5113;41.822;23.564;2024-02-23T15:48:58;40.30;;;24.63;;
10144;SDS011;5113;41.822;23.564;2024-02-23T15:52:16;56.90;;;32.77;;
10144;SDS011;5113;41.822;23.564;2024-02-23T15:55:24;74.80;;;35.23;;
10144;SDS011;5113;41.822;23.564;2024-02-23T15:58:30;74.07;;;37.93;;
10144;SDS011;5113;41.822;23.564;2024-02-23T16:01:38;66.30;;;35.97;;
10144;SDS011;5113;41.822;23.564;2024-02-23T16:04:45;52.30;;;33.47;;
10144;SDS011;5113;41.822;23.564;2024-02-23T16:07:52;40.57;;;28.80;;
10144;SDS011;5113;41.822;23.564;2024-02-23T16:10:58;48.13;;;35.07;;
10144;SDS011;5113;41.822;23.564;2024-02-23T16:14:05;51.97;;;31.47;;
10144;SDS011;5113;41.822;23.564;2024-02-23T16:17:14;114.63;;;53.23;;
10144;SDS011;5113;41.822;23.564;2024-02-23T16:20:21;53.90;;;29.30;;
10144;SDS011;5113;41.822;23.564;2024-02-23T16:23:27;56.67;;;30.90;;
10144;SDS011;5113;41.822;23.564;2024-02-23T16:26:35;58.57;;;33.73;;
10144;SDS011;5113;41.822;23.564;2024-02-23T16:29:44;53.33;;;34.67;;
10144;SDS011;5113;41.822;23.564;2024-02-23T16:32:52;44.90;;;26.97;;
10144;SDS011;5113;41.822;23.564;2024-02-23T16:35:59;66.17;;;37.43;;
10144;SDS011;5113;41.822;23.564;2024-02-23T16:39:07;72.27;;;38.17;;
10144;SDS011;5113;41.822;23.564;2024-02-23T16:42:14;71.53;;;42.47;;
10144;SDS011;5113;41.822;23.564;2024-02-23T16:45:21;60.63;;;35.23;;
10144;SDS011;5113;41.822;23.564;2024-02-23T16:48:32;54.50;;;33.37;;
10144;SDS011;5113;41.822;23.564;2024-02-23T16:51:39;42.13;;;23.90;;
10144;SDS011;5113;41.822;23.564;2024-02-23T16:54:47;50.57;;;29.33;;
10144;SDS011;5113;41.822;23.564;2024-02-23T16:57:54;42.70;;;26.60;;
10144;SDS011;5113;41.822;23.564;2024-02-23T17:01:01;55.53;;;31.20;;
10144;SDS011;5113;41.822;23.564;2024-02-23T17:04:11;47.93;;;27.77;;
10144;SDS011;5113;41.822;23.564;2024-02-23T17:07:18;44.93;;;24.33;;
10144;SDS011;5113;41.822;23.564;2024-02-23T17:10:25;44.40;;;27.60;;
10144;SDS011;5113;41.822;23.564;2024-02-23T17:13:32;50.57;;;26.70;;
10144;SDS011;5113;41.822;23.564;2024-02-23T17:16:39;43.63;;;26.93;;
10144;SDS011;5113;41.822;23.564;2024-02-23T17:19:47;33.90;;;23.03;;
10144;SDS011;5113;41.822;23.564;2024-02-23T17:22:54;52.60;;;31.80;;
10144;SDS011;5113;41.822;23.564;2024-02-23T17:26:01;92.47;;;53.73;;
10144;SDS011;5113;41.822;23.564;2024-02-23T17:29:09;146.37;;;71.37;;
10144;SDS011;5113;41.822;23.564;2024-02-23T17:32:18;91.20;;;48.27;;
10144;SDS011;5113;41.822;23.564;2024-02-23T17:35:26;83.70;;;45.80;;
10144;SDS011;5113;41.822;23.564;2024-02-23T17:38:33;111.93;;;60.23;;
10144;SDS011;5113;41.822;23.564;2024-02-23T17:41:41;112.27;;;61.13;;
10144;SDS011;5113;41.822;23.564;2024-02-23T17:44:48;96.77;;;54.47;;
10144;SDS011;5113;41.822;23.564;2024-02-23T17:47:55;125.87;;;59.33;;
10144;SDS011;5113;41.822;23.564;2024-02-23T17:51:03;116.57;;;60.80;;
10144;SDS011;5113;41.822;23.564;2024-02-23T17:54:11;109.03;;;58.37;;
10144;SDS011;5113;41.822;23.564;2024-02-23T17:57:18;198.47;;;96.60;;
10144;SDS011;5113;41.822;23.564;2024-02-23T18:00:25;202.53;;;99.37;;
10144;SDS011;5113;41.822;23.564;2024-02-23T18:03:32;206.87;;;100.93;;
10144;SDS011;5113;41.822;23.564;2024-02-23T18:06:40;159.83;;;74.23;;
10144;SDS011;5113;41.822;23.564;2024-02-23T18:09:47;94.77;;;46.03;;
10144;SDS011;5113;41.822;23.564;2024-02-23T18:12:54;93.37;;;47.80;;
10144;SDS011;5113;41.822;23.564;2024-02-23T18:16:01;88.77;;;46.97;;
10144;SDS011;5113;41.822;23.564;2024-02-23T18:19:11;132.03;;;62.50;;
10144;SDS011;5113;41.822;23.564;2024-02-23T18:22:19;124.73;;;62.20;;
10144;SDS011;5113;41.822;23.564;2024-02-23T18:25:25;126.93;;;62.37;;
10144;SDS011;5113;41.822;23.564;2024-02-23T18:28:32;96.47;;;46.23;;